Dekalb, IL

3:36 PM CST on February 09, 2016 (GMT -0600)
Maplewood | | Change Station
CLOSE
Current Station
Personal Weather Station
Location: DeKalb, IL
Elevation: 902 ft
Nearby Weather Stations

Elev 902 ft 41.93 °N, 88.74 °W | Updated 10 minutes ago

Overcast
Overcast
16.6 °F
Feels Like 17 °F
N
0.0
Wind Variable Wind from WNW
Gusts 14.0 mph

Today
High -- | Low -- °F
--% Chance of Precip.
Yesterday
High -- | Low -- °F
Precip. -- in
Pressure 29.88 in
Visibility 10.0 miles
Clouds Overcast 2700 ft
Windchill 17 °F
Dew Point 10 °F
Humidity 74%
Rainfall 0.00 in
Snow Depth Not available.
6:59 AM 5:19 PM
New Moon, 2% visible
METAR KDKB 092115Z AUTO 32012G16KT 10SM OVC027 M09/M14 A2988 RMK AO2 T10871136
Pressure 29.88 in
Visibility 10.0 miles
Clouds Overcast 2700 ft
Windchill 17 °F
Dew Point 10 °F
Humidity 74%
Rainfall 0.00 in
Snow Depth Not available.
6:59 AM 5:19 PM
New Moon, 2% visible
METAR KDKB 092115Z AUTO 32012G16KT 10SM OVC027 M09/M14 A2988 RMK AO2 T10871136

10-Day Weather Forecast

Almanac

Astronomy

Feb. 09, 2016 Rise Set
Actual Time
Civil Twilight
Nautical Twilight
Astronomical Twilight
Moon
Length of Visible Light
Length of Day
Tomorrow will be .
, % of the Moon is Illuminated

Today's Extremes

State Highs State Lows

Community

WunderPhotos

Upload Photos

1,891,708 photos uploaded!

WunderBlog® & News

Nearby

Air Quality

  Air Quality AQ Index Pollutant
Not available.

Snow Depth

Station Depth Elevation

Earthquake Activity

City Distance Mag. Time & Date
Minimum magnitude displayed is 2.5.

Coastal Water Temperatures

Place Temperature

Stations

Nearby Weather Stations

Station Location Temp. Windchill Dew Point Humidity Wind Precip. Elev Updated Type
                   

Watches & Warnings

There are currently no watches in effect.